ACA856 CYUL-CYHZ
Flight info
| Callsign | ACA856 |
|---|---|
| Flight time | 1h 6m |
| Altitude | 31000 |
| Route | SUXET DCT NOVUN DCT ESRAM DCT RABIK Q951 ANTOV DCT EBONY FUNDY5 |
| Aircraft | MD82/M-SDFGIJ1RWY/S |
Departure
| Time | 2026-05-04 22:49 |
|---|---|
| Airport | Montreal / Pierre Elliott Trudeau International Airport (CYUL) |
Arrival
| Time | 2026-05-04 23:56 |
|---|---|
| Airport | Halifax / Stanfield International Airport (CYHZ) |
| Time | Latitude | Longitude | Altitude | Speed | Heading |
|---|---|---|---|---|---|
| 2026-05-04 22:39 | 45.46739 | -73.73485 | 112 ft | 0 kts | 133° |
| 2026-05-04 22:43 | 45.46732 | -73.73476 | 112 ft | 3 kts | 146° |
| 2026-05-04 22:44 | 45.46705 | -73.73483 | 114 ft | 8 kts | 221° |
| 2026-05-04 22:44 | 45.46639 | -73.73555 | 115 ft | 11 kts | 197° |
| 2026-05-04 22:44 | 45.46571 | -73.73547 | 114 ft | 7 kts | 144° |
| 2026-05-04 22:44 | 45.46592 | -73.73472 | 114 ft | 15 kts | 43° |
| 2026-05-04 22:45 | 45.46708 | -73.73320 | 113 ft | 30 kts | 42° |
| 2026-05-04 22:45 | 45.47093 | -73.72836 | 118 ft | 42 kts | 40° |
| 2026-05-04 22:45 | 45.47300 | -73.72530 | 120 ft | 44 kts | 44° |
| 2026-05-04 22:46 | 45.47524 | -73.72249 | 120 ft | 42 kts | 39° |
| 2026-05-04 22:46 | 45.47730 | -73.71990 | 128 ft | 35 kts | 48° |
| 2026-05-04 22:46 | 45.47833 | -73.71826 | 127 ft | 11 kts | 54° |
| 2026-05-04 22:46 | 45.47840 | -73.71743 | 128 ft | 6 kts | 114° |
| 2026-05-04 22:47 | 45.47828 | -73.71727 | 126 ft | 2 kts | 151° |
| 2026-05-04 22:47 | 45.47807 | -73.71711 | 127 ft | 5 kts | 151° |
| 2026-05-04 22:47 | 45.47769 | -73.71683 | 125 ft | 7 kts | 158° |
| 2026-05-04 22:47 | 45.47721 | -73.71656 | 122 ft | 8 kts | 158° |
| 2026-05-04 22:48 | 45.47670 | -73.71639 | 124 ft | 7 kts | 194° |
| 2026-05-04 22:48 | 45.47632 | -73.71684 | 126 ft | 7 kts | 224° |
| 2026-05-04 22:48 | 45.47600 | -73.71728 | 127 ft | 6 kts | 224° |
| 2026-05-04 22:48 | 45.47539 | -73.71810 | 125 ft | 32 kts | 224° |
| 2026-05-04 22:49 | 45.47201 | -73.72254 | 119 ft | 100 kts | 222° |
| 2026-05-04 22:49 | 45.46536 | -73.73121 | 118 ft | 157 kts | 224° |
| 2026-05-04 22:49 | 45.45675 | -73.74197 | 708 ft | 162 kts | 223° |
| 2026-05-04 22:49 | 45.44873 | -73.75177 | 1757 ft | 148 kts | 224° |
| 2026-05-04 22:50 | 45.44036 | -73.76240 | 2211 ft | 175 kts | 226° |
| 2026-05-04 22:50 | 45.43130 | -73.77460 | 2899 ft | 185 kts | 227° |
| 2026-05-04 22:50 | 45.42139 | -73.78794 | 3383 ft | 204 kts | 226° |
| 2026-05-04 22:50 | 45.40885 | -73.79829 | 4030 ft | 222 kts | 195° |
| 2026-05-04 22:51 | 45.39294 | -73.79585 | 4644 ft | 245 kts | 159° |
| 2026-05-04 22:51 | 45.37874 | -73.78178 | 5235 ft | 260 kts | 141° |
| 2026-05-04 22:51 | 45.36591 | -73.76271 | 5815 ft | 274 kts | 131° |
| 2026-05-04 22:51 | 45.35458 | -73.74004 | 6311 ft | 292 kts | 123° |
| 2026-05-04 22:52 | 45.34479 | -73.71455 | 7175 ft | 295 kts | 117° |
| 2026-05-04 22:52 | 45.33616 | -73.68794 | 8054 ft | 299 kts | 114° |
| 2026-05-04 22:52 | 45.32818 | -73.66030 | 8883 ft | 304 kts | 112° |
| 2026-05-04 22:52 | 45.32063 | -73.63200 | 9689 ft | 309 kts | 110° |
| 2026-05-04 22:53 | 45.31326 | -73.60296 | 10334 ft | 319 kts | 109° |
| 2026-05-04 22:53 | 45.30560 | -73.57196 | 10498 ft | 345 kts | 109° |
| 2026-05-04 22:53 | 45.29753 | -73.53872 | 10694 ft | 367 kts | 109° |
| 2026-05-04 22:53 | 45.28901 | -73.50359 | 11108 ft | 381 kts | 109° |
| 2026-05-04 22:54 | 45.28027 | -73.46780 | 11893 ft | 384 kts | 109° |
| 2026-05-04 22:54 | 45.27143 | -73.43192 | 12723 ft | 387 kts | 109° |
| 2026-05-04 22:54 | 45.26244 | -73.39566 | 13468 ft | 392 kts | 109° |
| 2026-05-04 22:54 | 45.25331 | -73.35895 | 14116 ft | 397 kts | 109° |
| 2026-05-04 22:55 | 45.24420 | -73.32235 | 14836 ft | 399 kts | 109° |
| 2026-05-04 22:55 | 45.23493 | -73.28513 | 15536 ft | 402 kts | 109° |
| 2026-05-04 22:55 | 45.22549 | -73.24757 | 16176 ft | 406 kts | 109° |
| 2026-05-04 22:55 | 45.21591 | -73.20967 | 16815 ft | 410 kts | 109° |
| 2026-05-04 22:56 | 45.20678 | -73.17114 | 17456 ft | 413 kts | 101° |
| 2026-05-04 22:56 | 45.20389 | -73.13069 | 18112 ft | 413 kts | 87° |
| 2026-05-04 22:56 | 45.20480 | -73.08988 | 18655 ft | 416 kts | 84° |
| 2026-05-04 22:56 | 45.20643 | -73.04877 | 19162 ft | 420 kts | 84° |
| 2026-05-04 22:57 | 45.20874 | -73.00733 | 19698 ft | 422 kts | 77° |
| 2026-05-04 22:57 | 45.21769 | -72.96810 | 20245 ft | 417 kts | 60° |
| 2026-05-04 22:57 | 45.23162 | -72.93204 | 20822 ft | 418 kts | 56° |
| 2026-05-04 22:57 | 45.24654 | -72.89639 | 21320 ft | 422 kts | 55° |
| 2026-05-04 22:58 | 45.26170 | -72.86047 | 21877 ft | 425 kts | 55° |
| 2026-05-04 22:58 | 45.27688 | -72.82433 | 22418 ft | 428 kts | 56° |
| 2026-05-04 22:58 | 45.29055 | -72.78641 | 22880 ft | 437 kts | 68° |
| 2026-05-04 22:58 | 45.29666 | -72.74362 | 23372 ft | 445 kts | 83° |
| 2026-05-04 22:59 | 45.29824 | -72.69948 | 23811 ft | 449 kts | 86° |
| 2026-05-04 22:59 | 45.29910 | -72.65499 | 24227 ft | 452 kts | 86° |
| 2026-05-04 22:59 | 45.29999 | -72.61015 | 24645 ft | 455 kts | 85° |
| 2026-05-04 22:59 | 45.30143 | -72.56524 | 25068 ft | 457 kts | 84° |
| 2026-05-04 23:00 | 45.30341 | -72.52063 | 25466 ft | 459 kts | 83° |
| 2026-05-04 23:00 | 45.30578 | -72.47535 | 25880 ft | 461 kts | 83° |
| 2026-05-04 23:00 | 45.30834 | -72.42981 | 26277 ft | 463 kts | 83° |
| 2026-05-04 23:00 | 45.31096 | -72.38400 | 26641 ft | 466 kts | 83° |
| 2026-05-04 23:01 | 45.31357 | -72.33796 | 27032 ft | 469 kts | 83° |
| 2026-05-04 23:01 | 45.31614 | -72.29175 | 27435 ft | 470 kts | 83° |
| 2026-05-04 23:01 | 45.31866 | -72.24532 | 27787 ft | 473 kts | 84° |
| 2026-05-04 23:01 | 45.32115 | -72.19858 | 28121 ft | 476 kts | 84° |
| 2026-05-04 23:02 | 45.32364 | -72.15160 | 28472 ft | 478 kts | 84° |
| 2026-05-04 23:02 | 45.32611 | -72.10463 | 28932 ft | 477 kts | 84° |
| 2026-05-04 23:02 | 45.32862 | -72.05754 | 29278 ft | 479 kts | 84° |
| 2026-05-04 23:02 | 45.33114 | -72.01037 | 29748 ft | 477 kts | 84° |
| 2026-05-04 23:03 | 45.33357 | -71.96345 | 30184 ft | 475 kts | 85° |
| 2026-05-04 23:03 | 45.33589 | -71.91663 | 30485 ft | 477 kts | 85° |
| 2026-05-04 23:03 | 45.33825 | -71.86943 | 30629 ft | 479 kts | 85° |
| 2026-05-04 23:03 | 45.34177 | -71.82233 | 30693 ft | 477 kts | 82° |
| 2026-05-04 23:04 | 45.35200 | -71.72986 | 30729 ft | 470 kts | 79° |
| 2026-05-04 23:04 | 45.36269 | -71.63846 | 30738 ft | 468 kts | 80° |
| 2026-05-04 23:05 | 45.37270 | -71.54758 | 30749 ft | 469 kts | 81° |
| 2026-05-04 23:05 | 45.38246 | -71.45574 | 30762 ft | 470 kts | 81° |
| 2026-05-04 23:06 | 45.39229 | -71.36297 | 30890 ft | 478 kts | 81° |
| 2026-05-04 23:06 | 45.39728 | -71.31623 | 31250 ft | 477 kts | 81° |
| 2026-05-04 23:06 | 45.40235 | -71.26972 | 31662 ft | 475 kts | 80° |
| 2026-05-04 23:07 | 45.40739 | -71.22337 | 32025 ft | 473 kts | 81° |
| 2026-05-04 23:07 | 45.41204 | -71.17701 | 32393 ft | 472 kts | 82° |
| 2026-05-04 23:07 | 45.41662 | -71.13058 | 32609 ft | 474 kts | 82° |
| 2026-05-04 23:07 | 45.42131 | -71.08396 | 32717 ft | 478 kts | 81° |
| 2026-05-04 23:08 | 45.42491 | -70.99015 | 32784 ft | 474 kts | 98° |
| 2026-05-04 23:08 | 45.41376 | -70.89832 | 32795 ft | 469 kts | 101° |
| 2026-05-04 23:09 | 45.40158 | -70.80721 | 32791 ft | 468 kts | 101° |
| 2026-05-04 23:09 | 45.39016 | -70.71636 | 32796 ft | 471 kts | 100° |
| 2026-05-04 23:10 | 45.37921 | -70.62434 | 32795 ft | 473 kts | 100° |
| 2026-05-04 23:10 | 45.36827 | -70.53158 | 32800 ft | 476 kts | 100° |
| 2026-05-04 23:11 | 45.35716 | -70.43847 | 32798 ft | 478 kts | 100° |
| 2026-05-04 23:11 | 45.34570 | -70.34565 | 32794 ft | 476 kts | 101° |
| 2026-05-04 23:12 | 45.33393 | -70.25333 | 32793 ft | 474 kts | 101° |
| 2026-05-04 23:12 | 45.32229 | -70.16115 | 32797 ft | 474 kts | 101° |
| 2026-05-04 23:13 | 45.31071 | -70.06886 | 32794 ft | 475 kts | 100° |
| 2026-05-04 23:13 | 45.29913 | -69.97634 | 32797 ft | 476 kts | 100° |
| 2026-05-04 23:14 | 45.28749 | -69.88363 | 32797 ft | 477 kts | 100° |
| 2026-05-04 23:14 | 45.27577 | -69.79161 | 32794 ft | 476 kts | 101° |
| 2026-05-04 23:15 | 45.26354 | -69.69937 | 32789 ft | 474 kts | 101° |
| 2026-05-04 23:15 | 45.25343 | -69.62303 | 32791 ft | 473 kts | 101° |
| 2026-05-04 23:16 | 45.24134 | -69.53102 | 32789 ft | 475 kts | 101° |
| 2026-05-04 23:16 | 45.22925 | -69.43869 | 32790 ft | 476 kts | 101° |
| 2026-05-04 23:17 | 45.21714 | -69.34629 | 32788 ft | 477 kts | 101° |
| 2026-05-04 23:17 | 45.20501 | -69.25396 | 32788 ft | 476 kts | 101° |
| 2026-05-04 23:18 | 45.19246 | -69.16188 | 32776 ft | 475 kts | 101° |
| 2026-05-04 23:18 | 45.17975 | -69.07001 | 32787 ft | 475 kts | 101° |
| 2026-05-04 23:19 | 45.16712 | -68.97805 | 32785 ft | 476 kts | 101° |
| 2026-05-04 23:19 | 45.15454 | -68.88585 | 32791 ft | 477 kts | 101° |
| 2026-05-04 23:20 | 45.14192 | -68.79353 | 32786 ft | 478 kts | 101° |
| 2026-05-04 23:20 | 45.12938 | -68.70171 | 32790 ft | 477 kts | 101° |
| 2026-05-04 23:21 | 45.11649 | -68.60972 | 32785 ft | 475 kts | 102° |
| 2026-05-04 23:21 | 45.10330 | -68.51801 | 32786 ft | 475 kts | 102° |
| 2026-05-04 23:22 | 45.09013 | -68.42605 | 32789 ft | 477 kts | 102° |
| 2026-05-04 23:22 | 45.07704 | -68.33399 | 32874 ft | 476 kts | 102° |
| 2026-05-04 23:23 | 45.06401 | -68.24225 | 32770 ft | 474 kts | 102° |
| 2026-05-04 23:23 | 45.05100 | -68.15079 | 32787 ft | 476 kts | 102° |
| 2026-05-04 23:24 | 45.03783 | -68.05933 | 32789 ft | 478 kts | 102° |
| 2026-05-04 23:24 | 45.02410 | -67.96712 | 32787 ft | 480 kts | 102° |
| 2026-05-04 23:25 | 45.01035 | -67.87485 | 32782 ft | 478 kts | 102° |
| 2026-05-04 23:25 | 44.99675 | -67.78285 | 32784 ft | 478 kts | 102° |
| 2026-05-04 23:26 | 44.98316 | -67.69074 | 32784 ft | 479 kts | 102° |
| 2026-05-04 23:26 | 44.96955 | -67.59855 | 32783 ft | 479 kts | 102° |
| 2026-05-04 23:27 | 44.95542 | -67.50642 | 32785 ft | 480 kts | 104° |
| 2026-05-04 23:27 | 44.93942 | -67.41499 | 32792 ft | 480 kts | 103° |
| 2026-05-04 23:28 | 44.92563 | -67.32320 | 32799 ft | 481 kts | 101° |
| 2026-05-04 23:28 | 44.91306 | -67.23050 | 32809 ft | 482 kts | 101° |
| 2026-05-04 23:29 | 44.90186 | -67.13724 | 32812 ft | 482 kts | 94° |
| 2026-05-04 23:29 | 44.90048 | -67.04259 | 32807 ft | 482 kts | 89° |
| 2026-05-04 23:30 | 44.90132 | -66.94794 | 32803 ft | 483 kts | 89° |
| 2026-05-04 23:30 | 44.90171 | -66.85369 | 32804 ft | 483 kts | 90° |
| 2026-05-04 23:31 | 44.90149 | -66.75879 | 32791 ft | 484 kts | 90° |
| 2026-05-04 23:31 | 44.90111 | -66.66387 | 32803 ft | 484 kts | 90° |
| 2026-05-04 23:32 | 44.90081 | -66.56881 | 32787 ft | 485 kts | 90° |
| 2026-05-04 23:32 | 44.90012 | -66.47347 | 32744 ft | 489 kts | 89° |
| 2026-05-04 23:33 | 44.89916 | -66.37636 | 32793 ft | 502 kts | 88° |
| 2026-05-04 23:33 | 44.89859 | -66.27649 | 32811 ft | 515 kts | 89° |
| 2026-05-04 23:34 | 44.89788 | -66.17509 | 32811 ft | 516 kts | 89° |
| 2026-05-04 23:34 | 44.89708 | -66.07397 | 32807 ft | 515 kts | 89° |
| 2026-05-04 23:35 | 44.89627 | -65.97315 | 32813 ft | 514 kts | 89° |
| 2026-05-04 23:35 | 44.89539 | -65.92252 | 32445 ft | 522 kts | 90° |
| 2026-05-04 23:35 | 44.89397 | -65.87076 | 31662 ft | 530 kts | 89° |
| 2026-05-04 23:36 | 44.89267 | -65.81970 | 30918 ft | 526 kts | 88° |
| 2026-05-04 23:36 | 44.89179 | -65.76844 | 30439 ft | 519 kts | 86° |
| 2026-05-04 23:36 | 44.89120 | -65.66755 | 30289 ft | 515 kts | 85° |
| 2026-05-04 23:37 | 44.89095 | -65.56559 | 29994 ft | 527 kts | 86° |
| 2026-05-04 23:37 | 44.89068 | -65.51370 | 29562 ft | 531 kts | 86° |
| 2026-05-04 23:37 | 44.89012 | -65.46170 | 29090 ft | 529 kts | 87° |
| 2026-05-04 23:38 | 44.88912 | -65.40986 | 28541 ft | 529 kts | 88° |
| 2026-05-04 23:38 | 44.88796 | -65.35802 | 27915 ft | 530 kts | 88° |
| 2026-05-04 23:38 | 44.88684 | -65.30587 | 27249 ft | 533 kts | 88° |
| 2026-05-04 23:38 | 44.88583 | -65.25339 | 26524 ft | 536 kts | 88° |
| 2026-05-04 23:39 | 44.88491 | -65.20100 | 25763 ft | 530 kts | 88° |
| 2026-05-04 23:39 | 44.88405 | -65.14928 | 25012 ft | 525 kts | 88° |
| 2026-05-04 23:39 | 44.88322 | -65.09798 | 24319 ft | 522 kts | 88° |
| 2026-05-04 23:39 | 44.88241 | -65.04701 | 23627 ft | 518 kts | 88° |
| 2026-05-04 23:40 | 44.88158 | -64.99642 | 22865 ft | 514 kts | 89° |
| 2026-05-04 23:40 | 44.88078 | -64.94642 | 22104 ft | 507 kts | 89° |
| 2026-05-04 23:40 | 44.87998 | -64.89701 | 21408 ft | 501 kts | 89° |
| 2026-05-04 23:40 | 44.87903 | -64.84810 | 20716 ft | 496 kts | 90° |
| 2026-05-04 23:41 | 44.87796 | -64.80023 | 20057 ft | 492 kts | 90° |
| 2026-05-04 23:41 | 44.87684 | -64.75219 | 19397 ft | 487 kts | 91° |
| 2026-05-04 23:41 | 44.87573 | -64.70471 | 18754 ft | 482 kts | 91° |
| 2026-05-04 23:41 | 44.87462 | -64.65756 | 18120 ft | 478 kts | 91° |
| 2026-05-04 23:42 | 44.87355 | -64.61092 | 17401 ft | 474 kts | 91° |
| 2026-05-04 23:42 | 44.87251 | -64.56482 | 16727 ft | 467 kts | 91° |
| 2026-05-04 23:42 | 44.87149 | -64.51939 | 16088 ft | 460 kts | 91° |
| 2026-05-04 23:42 | 44.87050 | -64.47459 | 15464 ft | 454 kts | 91° |
| 2026-05-04 23:43 | 44.86952 | -64.43034 | 14846 ft | 449 kts | 92° |
| 2026-05-04 23:43 | 44.86856 | -64.38654 | 14248 ft | 443 kts | 92° |
| 2026-05-04 23:43 | 44.86802 | -64.34405 | 13808 ft | 433 kts | 86° |
| 2026-05-04 23:43 | 44.87354 | -64.30340 | 13631 ft | 413 kts | 67° |
| 2026-05-04 23:44 | 44.88408 | -64.26645 | 13238 ft | 402 kts | 63° |
| 2026-05-04 23:44 | 44.89494 | -64.23012 | 12606 ft | 400 kts | 64° |
| 2026-05-04 23:44 | 44.90512 | -64.19374 | 12054 ft | 397 kts | 66° |
| 2026-05-04 23:44 | 44.91461 | -64.15722 | 11447 ft | 396 kts | 68° |
| 2026-05-04 23:45 | 44.92358 | -64.12064 | 10894 ft | 392 kts | 69° |
| 2026-05-04 23:45 | 44.93191 | -64.08513 | 10668 ft | 380 kts | 69° |
| 2026-05-04 23:45 | 44.93984 | -64.05033 | 10548 ft | 365 kts | 70° |
| 2026-05-04 23:45 | 44.94742 | -64.01672 | 10399 ft | 353 kts | 70° |
| 2026-05-04 23:46 | 44.95478 | -63.98408 | 10225 ft | 343 kts | 70° |
| 2026-05-04 23:46 | 44.96194 | -63.95260 | 10058 ft | 331 kts | 69° |
| 2026-05-04 23:46 | 44.96883 | -63.92244 | 9849 ft | 324 kts | 69° |
| 2026-05-04 23:46 | 44.97574 | -63.89224 | 9569 ft | 322 kts | 69° |
| 2026-05-04 23:47 | 44.98265 | -63.86211 | 9143 ft | 323 kts | 69° |
| 2026-05-04 23:47 | 44.98963 | -63.83188 | 8676 ft | 324 kts | 69° |
| 2026-05-04 23:47 | 44.99666 | -63.80153 | 8187 ft | 326 kts | 69° |
| 2026-05-04 23:47 | 45.00368 | -63.77098 | 7653 ft | 328 kts | 70° |
| 2026-05-04 23:48 | 45.01048 | -63.74048 | 7128 ft | 323 kts | 70° |
| 2026-05-04 23:48 | 45.01715 | -63.71031 | 6586 ft | 320 kts | 70° |
| 2026-05-04 23:48 | 45.02380 | -63.68044 | 6068 ft | 317 kts | 70° |
| 2026-05-04 23:48 | 45.03042 | -63.65089 | 5519 ft | 314 kts | 69° |
| 2026-05-04 23:49 | 45.03701 | -63.62167 | 5005 ft | 310 kts | 69° |
| 2026-05-04 23:49 | 45.04360 | -63.59283 | 4502 ft | 307 kts | 70° |
| 2026-05-04 23:49 | 45.05008 | -63.56456 | 4220 ft | 296 kts | 69° |
| 2026-05-04 23:49 | 45.05626 | -63.53753 | 4084 ft | 281 kts | 69° |
| 2026-05-04 23:50 | 45.06211 | -63.51186 | 4029 ft | 268 kts | 69° |
| 2026-05-04 23:50 | 45.06758 | -63.48731 | 4001 ft | 256 kts | 72° |
| 2026-05-04 23:50 | 45.06915 | -63.46253 | 3706 ft | 258 kts | 104° |
| 2026-05-04 23:50 | 45.06228 | -63.43973 | 3457 ft | 246 kts | 130° |
| 2026-05-04 23:51 | 45.05237 | -63.42033 | 3162 ft | 242 kts | 134° |
| 2026-05-04 23:51 | 45.04244 | -63.40194 | 3079 ft | 229 kts | 139° |
| 2026-05-04 23:51 | 45.03059 | -63.39030 | 3012 ft | 190 kts | 178° |
| 2026-05-04 23:51 | 45.01920 | -63.39149 | 3017 ft | 150 kts | 214° |
| 2026-05-04 23:52 | 45.00965 | -63.39683 | 2999 ft | 147 kts | 212° |
| 2026-05-04 23:52 | 45.00010 | -63.40196 | 3011 ft | 146 kts | 215° |
| 2026-05-04 23:52 | 44.99112 | -63.40793 | 3018 ft | 144 kts | 219° |
| 2026-05-04 23:52 | 44.98247 | -63.41478 | 3030 ft | 141 kts | 224° |
| 2026-05-04 23:53 | 44.97415 | -63.42208 | 3004 ft | 143 kts | 222° |
| 2026-05-04 23:53 | 44.96540 | -63.42927 | 2811 ft | 145 kts | 221° |
| 2026-05-04 23:53 | 44.95703 | -63.43696 | 2610 ft | 143 kts | 224° |
| 2026-05-04 23:53 | 44.94897 | -63.44427 | 2411 ft | 136 kts | 221° |
| 2026-05-04 23:54 | 44.94125 | -63.45195 | 2156 ft | 136 kts | 225° |
| 2026-05-04 23:54 | 44.93375 | -63.46003 | 1808 ft | 135 kts | 224° |
| 2026-05-04 23:54 | 44.92606 | -63.46777 | 1357 ft | 136 kts | 221° |
| 2026-05-04 23:54 | 44.91843 | -63.47500 | 1168 ft | 127 kts | 221° |
| 2026-05-04 23:55 | 44.91105 | -63.48246 | 1064 ft | 134 kts | 221° |
| 2026-05-04 23:55 | 44.90344 | -63.49019 | 887 ft | 136 kts | 220° |
| 2026-05-04 23:55 | 44.88851 | -63.50477 | 501 ft | 127 kts | 220° |
| 2026-05-04 23:56 | 44.88197 | -63.51133 | 450 ft | 90 kts | 213° |
| 2026-05-04 23:56 | 44.87846 | -63.51469 | 452 ft | 52 kts | 214° |
| 2026-05-04 23:56 | 44.87629 | -63.51686 | 451 ft | 26 kts | 216° |
| 2026-05-04 23:56 | 44.87516 | -63.51810 | 450 ft | 20 kts | 220° |
| 2026-05-04 23:57 | 44.87449 | -63.51941 | 450 ft | 14 kts | 255° |
| 2026-05-04 23:57 | 44.87461 | -63.52057 | 452 ft | 4 kts | 292° |
| 2026-05-04 23:57 | 44.87461 | -63.52058 | 452 ft | 0 kts | 292° |
| 2026-05-04 23:59 | 44.87461 | -63.52059 | 452 ft | 0 kts | 292° |
| 2026-05-04 23:59 | 44.87473 | -63.52089 | 452 ft | 6 kts | 302° |
| 2026-05-04 23:59 | 44.87515 | -63.52106 | 452 ft | 9 kts | 20° |
| 2026-05-04 23:59 | 44.87601 | -63.52031 | 452 ft | 19 kts | 33° |
| 2026-05-05 00:00 | 44.87710 | -63.51922 | 453 ft | 20 kts | 35° |
| 2026-05-05 00:00 | 44.87747 | -63.51886 | 453 ft | 20 kts | 35° |
| 2026-05-05 00:00 | 44.87905 | -63.51732 | 453 ft | 21 kts | 34° |
| 2026-05-05 00:00 | 44.88046 | -63.51594 | 453 ft | 28 kts | 35° |
| 2026-05-05 00:01 | 44.88206 | -63.51436 | 452 ft | 28 kts | 34° |
| 2026-05-05 00:01 | 44.88404 | -63.51241 | 452 ft | 14 kts | 34° |
| 2026-05-05 00:01 | 44.88428 | -63.51232 | 452 ft | 1 kts | 336° |
| 2026-05-05 00:01 | 44.88434 | -63.51246 | 452 ft | 4 kts | 304° |
| 2026-05-05 00:02 | 44.88454 | -63.51283 | 452 ft | 5 kts | 317° |
| 2026-05-05 00:02 | 44.88460 | -63.51291 | 452 ft | 0 kts | 317° |